createdAt,value
2019-01-19T00:02:37.756Z,11.00
2019-01-19T00:07:55.415Z,9.67
2019-01-19T00:13:18.402Z,8.33
2019-01-19T00:19:01.643Z,9.37
2019-01-19T00:24:17.026Z,10.40
2019-01-19T00:29:33.556Z,9.00
2019-01-19T00:35:08.479Z,8.03
2019-01-19T00:40:55.382Z,7.90
2019-01-19T00:46:38.169Z,7.87
2019-01-19T00:52:40.450Z,8.30
2019-01-19T00:58:15.129Z,7.97
2019-01-19T01:03:26.986Z,7.70
2019-01-19T01:08:52.063Z,7.83
2019-01-19T01:14:39.170Z,7.60
2019-01-19T01:20:18.364Z,7.80
2019-01-19T01:25:58.411Z,8.43
2019-01-19T01:31:25.356Z,7.70
2019-01-19T01:37:21.383Z,7.40
2019-01-19T01:43:02.615Z,7.83
2019-01-19T01:48:48.802Z,7.40
2019-01-19T01:54:49.926Z,8.07
2019-01-19T02:00:47.151Z,8.10
2019-01-19T02:06:46.446Z,8.67
2019-01-19T02:12:17.862Z,7.63
2019-01-19T02:17:47.147Z,8.73
2019-01-19T02:23:01.083Z,7.93
2019-01-19T02:28:33.406Z,7.80
2019-01-19T02:33:50.034Z,7.07
2019-01-19T02:39:29.854Z,8.07
2019-01-19T02:45:29.125Z,7.40
2019-01-19T02:50:53.631Z,7.40
2019-01-19T02:56:28.654Z,7.47
2019-01-19T03:01:39.645Z,8.00
2019-01-19T03:07:17.986Z,7.17
2019-01-19T03:13:14.420Z,7.43
2019-01-19T03:18:49.045Z,7.50
2019-01-19T03:24:20.555Z,7.50
2019-01-19T03:29:44.763Z,8.40
2019-01-19T03:35:16.524Z,7.43
2019-01-19T03:40:38.971Z,7.20
2019-01-19T03:46:01.035Z,7.53
2019-01-19T03:51:16.396Z,7.63
2019-01-19T03:56:48.781Z,7.03
2019-01-19T04:02:33.698Z,7.30
2019-01-19T04:07:49.162Z,7.20
2019-01-19T04:13:28.131Z,6.97
2019-01-19T04:19:02.773Z,7.37
2019-01-19T04:24:15.298Z,7.30
2019-01-19T04:29:17.236Z,6.33
2019-01-19T04:34:19.710Z,6.80
2019-01-19T04:39:21.651Z,7.53
2019-01-19T04:44:24.060Z,7.23
2019-01-19T04:49:26.043Z,6.80
2019-01-19T04:54:28.081Z,7.23
2019-01-19T04:59:30.027Z,7.37
2019-01-19T05:04:32.053Z,7.03
2019-01-19T05:09:34.100Z,7.43
2019-01-19T05:14:36.021Z,7.00
2019-01-19T05:19:38.162Z,6.50
2019-01-19T05:24:40.402Z,7.83
2019-01-19T05:29:42.322Z,7.10
2019-01-19T05:34:44.339Z,7.77
2019-01-19T05:39:46.258Z,8.07
2019-01-19T05:44:48.435Z,7.23
2019-01-19T05:49:50.475Z,7.87
2019-01-19T05:54:52.406Z,7.80
2019-01-19T05:59:54.367Z,8.03
2019-01-19T06:04:56.489Z,8.80
2019-01-19T06:09:58.400Z,8.20
2019-01-19T06:15:00.339Z,8.80
2019-01-19T06:20:03.424Z,8.60
2019-01-19T06:25:06.876Z,8.57
2019-01-19T06:30:15.073Z,8.73
2019-01-19T06:35:17.208Z,7.90
2019-01-19T06:40:19.715Z,8.40
2019-01-19T06:45:23.992Z,8.17
2019-01-19T06:50:26.136Z,8.33
2019-01-19T06:55:30.499Z,8.50
2019-01-19T07:00:32.622Z,8.50
2019-01-19T07:05:34.767Z,8.93
2019-01-19T07:10:36.811Z,9.27
2019-01-19T07:15:38.729Z,9.47
2019-01-19T07:20:40.813Z,8.67
2019-01-19T07:25:43.436Z,9.23
2019-01-19T07:30:45.593Z,9.30
2019-01-19T07:35:47.807Z,8.23
2019-01-19T07:40:49.936Z,8.67
2019-01-19T07:45:52.076Z,9.23
2019-01-19T07:50:54.087Z,9.07
2019-01-19T07:55:56.020Z,9.00
2019-01-19T08:00:58.005Z,9.17
2019-01-19T08:06:00.007Z,9.13
2019-01-19T08:11:03.419Z,8.77
2019-01-19T08:16:05.497Z,8.33
2019-01-19T08:21:07.647Z,8.37
2019-01-19T08:26:10.032Z,8.63
2019-01-19T08:31:11.958Z,8.13
2019-01-19T08:36:13.967Z,9.23
2019-01-19T08:41:15.890Z,7.97
2019-01-19T08:46:17.821Z,9.67
2019-01-19T08:51:20.281Z,9.37
2019-01-19T08:56:41.036Z,9.63
2019-01-19T09:02:01.616Z,8.37
2019-01-19T09:07:22.370Z,9.17
2019-01-19T09:12:43.106Z,11.77
2019-01-19T09:18:03.840Z,7.60
2019-01-19T09:23:28.115Z,7.50
2019-01-19T09:28:48.406Z,7.73
2019-01-19T09:33:50.970Z,7.53
2019-01-19T09:38:53.128Z,7.50
2019-01-19T09:43:55.155Z,7.83
2019-01-19T09:48:57.180Z,7.17
2019-01-19T09:54:00.472Z,7.23
2019-01-19T09:59:02.543Z,6.93
2019-01-19T10:04:04.720Z,7.40
2019-01-19T10:09:07.044Z,6.60
2019-01-19T10:14:10.190Z,6.67
2019-01-19T10:19:12.714Z,7.70
2019-01-19T10:24:33.150Z,7.73
2019-01-19T10:29:35.064Z,8.70
2019-01-19T10:34:37.540Z,7.90
2019-01-19T10:39:39.559Z,8.50
2019-01-19T10:44:41.507Z,9.03
2019-01-19T10:49:43.430Z,8.37
2019-01-19T10:54:45.372Z,8.27
2019-01-19T10:59:48.142Z,7.57
2019-01-19T11:04:50.091Z,6.90
2019-01-19T11:09:51.996Z,6.50
2019-01-19T11:14:53.945Z,6.67
2019-01-19T11:19:55.843Z,6.23
2019-01-19T11:24:57.791Z,7.10
2019-01-19T11:30:00.802Z,7.23
2019-01-19T11:35:03.275Z,7.97
2019-01-19T11:40:10.242Z,5.80
2019-01-19T11:45:14.753Z,6.97
2019-01-19T11:50:17.261Z,6.70
2019-01-19T11:55:19.822Z,7.20
2019-01-19T12:00:25.078Z,7.40
2019-01-19T12:05:27.175Z,8.00
2019-01-19T12:10:29.516Z,7.03
2019-01-19T12:15:31.635Z,7.07
2019-01-19T12:20:38.834Z,7.27
2019-01-19T12:25:40.960Z,6.80
2019-01-19T12:30:43.260Z,6.50
2019-01-19T12:35:46.170Z,7.10
2019-01-19T12:40:48.097Z,6.53
2019-01-19T12:45:58.868Z,6.07
2019-01-19T12:51:04.107Z,5.90
2019-01-19T12:56:06.331Z,6.40
2019-01-19T13:01:08.492Z,5.83
2019-01-19T13:06:38.288Z,4.50
2019-01-19T13:12:23.383Z,4.80
2019-01-19T13:17:54.394Z,4.30
2019-01-19T13:23:31.419Z,4.17
2019-01-19T13:29:13.164Z,4.30
2019-01-19T13:34:59.002Z,4.93
2019-01-19T13:41:01.076Z,4.43
2019-01-19T13:46:54.077Z,4.60
2019-01-19T13:52:28.484Z,4.23
2019-01-19T13:58:03.639Z,4.40
2019-01-19T14:04:00.149Z,4.87
2019-01-19T14:09:54.880Z,4.60
2019-01-19T14:15:36.164Z,4.30
2019-01-19T14:21:08.268Z,4.37
2019-01-19T14:26:35.127Z,4.57
2019-01-19T14:32:10.988Z,4.40
2019-01-19T14:37:26.918Z,3.77
2019-01-19T14:43:00.668Z,3.77
2019-01-19T14:49:09.085Z,3.37
2019-01-19T14:54:49.609Z,3.97
2019-01-19T15:00:48.957Z,3.47
2019-01-19T15:06:33.997Z,2.70
2019-01-19T15:12:23.766Z,3.60
2019-01-19T15:17:48.592Z,3.53
2019-01-19T15:23:23.218Z,3.43
2019-01-19T15:28:54.575Z,4.27
2019-01-19T15:34:46.552Z,4.30
2019-01-19T15:40:30.133Z,3.93
2019-01-19T15:46:07.754Z,3.40
2019-01-19T15:51:43.417Z,3.73
2019-01-19T15:57:11.004Z,3.17
2019-01-19T16:02:43.709Z,3.30
2019-01-19T16:08:30.259Z,3.37
2019-01-19T16:14:03.577Z,2.90
2019-01-19T16:19:17.274Z,2.97
2019-01-19T16:24:32.572Z,2.90
2019-01-19T16:30:16.223Z,3.20
2019-01-19T16:35:55.749Z,2.97
2019-01-19T16:41:35.749Z,3.70
2019-01-19T16:47:15.185Z,4.60
2019-01-19T16:52:33.854Z,4.83
2019-01-19T16:57:54.555Z,4.53
2019-01-19T17:03:29.200Z,3.97
2019-01-19T17:09:01.807Z,3.80
2019-01-19T17:14:26.170Z,4.30
2019-01-19T17:20:07.672Z,5.40
2019-01-19T17:25:36.651Z,4.60
2019-01-19T17:31:17.891Z,4.90
2019-01-19T17:36:50.010Z,5.27
2019-01-19T17:42:03.438Z,5.20
2019-01-19T17:47:30.284Z,6.20
2019-01-19T17:53:11.576Z,5.70
2019-01-19T17:58:46.238Z,6.20
2019-01-19T18:04:13.399Z,5.57
2019-01-19T18:09:48.355Z,15.73
2019-01-19T18:15:35.776Z,15.70
2019-01-19T18:21:37.642Z,14.33
2019-01-19T18:27:12.722Z,10.17
2019-01-19T18:33:10.515Z,8.83
2019-01-19T18:38:33.718Z,8.57
2019-01-19T18:44:09.156Z,8.87
2019-01-19T18:49:49.548Z,10.47
2019-01-19T18:55:23.755Z,11.37
2019-01-19T19:00:51.520Z,11.53
2019-01-19T19:06:23.580Z,10.63
2019-01-19T19:12:09.275Z,10.63
2019-01-19T19:17:56.332Z,12.20
2019-01-19T19:23:38.675Z,10.77
2019-01-19T19:28:51.249Z,12.77
2019-01-19T19:34:15.816Z,11.77
2019-01-19T19:39:27.668Z,12.13
2019-01-19T19:45:11.659Z,11.80
2019-01-19T19:51:01.507Z,13.00
2019-01-19T19:56:02.751Z,11.57
2019-01-19T20:01:04.819Z,11.57
2019-01-19T20:06:06.861Z,12.00
2019-01-19T20:11:08.918Z,13.17
2019-01-19T20:16:10.947Z,12.97
2019-01-19T20:21:13.161Z,13.63
2019-01-19T20:26:15.607Z,14.17
2019-01-19T20:31:17.528Z,13.07
2019-01-19T20:36:19.604Z,13.50
2019-01-19T20:41:21.659Z,13.63
2019-01-19T20:46:23.683Z,14.47
2019-01-19T20:51:27.087Z,13.83
2019-01-19T20:56:30.159Z,14.17
2019-01-19T21:01:32.128Z,13.67
2019-01-19T21:06:34.078Z,14.30
2019-01-19T21:11:36.122Z,13.90
2019-01-19T21:16:38.452Z,13.97
2019-01-19T21:21:40.372Z,14.47
2019-01-19T21:26:42.320Z,14.00
2019-01-19T21:31:44.238Z,14.30
2019-01-19T21:36:46.162Z,14.63
2019-01-19T21:41:48.099Z,13.87
2019-01-19T21:46:50.021Z,15.13
2019-01-19T21:51:51.993Z,16.33
2019-01-19T21:56:53.990Z,16.47
2019-01-19T22:01:55.931Z,17.43
2019-01-19T22:06:57.855Z,17.27
2019-01-19T22:12:01.255Z,15.90
2019-01-19T22:17:03.387Z,15.60
2019-01-19T22:22:05.408Z,16.97
2019-01-19T22:27:07.996Z,16.70
2019-01-19T22:32:10.015Z,17.53
2019-01-19T22:37:11.939Z,17.43
2019-01-19T22:42:13.927Z,17.10
2019-01-19T22:47:15.844Z,17.63
2019-01-19T22:52:17.757Z,18.63
2019-01-19T22:57:19.843Z,18.53
2019-01-19T23:02:22.279Z,18.10
2019-01-19T23:07:24.894Z,17.80
2019-01-19T23:12:27.245Z,17.80
2019-01-19T23:17:29.252Z,19.03
2019-01-19T23:22:31.455Z,18.83
2019-01-19T23:27:33.659Z,19.30
2019-01-19T23:32:36.880Z,17.40
2019-01-19T23:37:38.790Z,17.50
2019-01-19T23:42:47.054Z,17.40
2019-01-19T23:47:45.863Z,17.57
2019-01-19T23:52:47.769Z,17.43
2019-01-19T23:57:49.728Z,16.63
